WVI weather

Watsonville Municipal Airport
Watsonville, California, United States

Public forecast

Using degrees Fahrenheit for public forecast. Weather courtesy of forecast.io.

METAR (pilot weather report)

Retrieved 2019/06/16 20:53 UTC (1 hour ago):

KWVI 162053Z AUTO 22008KT 10SM OVC013 17/12 A2991 RMK AO2 SLP128 T01720117 56008 $

TAF (pilot weather forecast)

Closest forecast is Salinas Municipal Airport, 18.6 nm (34.5 km) SSE. Retrieved 2019/06/16 18:27 UTC (3 hours ago):

TAF KSNS 161724Z 1618/1718 29008KT P6SM OVC012 FM161930 29010KT P6SM FEW015 FM162200 29012KT P6SM SKC FM170200 29009KT P6SM BKN012 FM170400 29006KT P6SM OVC008 FM170800 VRB03KT 6SM BR OVC005 FM171700 VRB03KT P6SM OVC009